Meteo Giornale » Osservazioni meteo Italia » Cervia

ore: 15:55 - Osservazioni Meteo Cervia
Lat. 44° 13' N Lon. 12° 18' E Alt. 6 metri s.l.m.

sereno Europe/Rome

16 °C

Sereno

Temp. 24 Ore

3 °C

16 °C

Nord

13 Km/h

Dew point -1 °C

Umidità 31 %

Visibilità  10 Km

Il sole sorge alle ore 06:41

Il sole tramonta alle ore 19:44

Data e Ora Cielo e Fenomeni T °C DP °C Um. % Pres. hPa Vis. km Vento km/h
Oggi h: 15:55 sereno Sereno 16 -1 31 1023 10 N 13
Oggi h: 14:55 sereno Sereno 15 0 35 1023 10 N 14.8
Oggi h: 13:55 sereno Sereno 15 3 44 1024 10 NE 14.8
Oggi h: 12:55 sereno Sereno 15 2 41 1024 10 N/NE 16.7
Oggi h: 11:55 sereno Sereno 14 4 50 1024 10 N/NE 16.7
Oggi h: 10:55 sereno Sereno 14 5 54 1024 10 N 13
Oggi h: 09:55 sereno Sereno 10 6 76 1024 10 O 14.8
Oggi h: 08:55 sereno Sereno 7 4 81 1024 10 O 18.5
Oggi h: 07:55 sereno Sereno 4 3 93 1023 10 O 13
Oggi h: 06:55 sereno Sereno 3 2 93 1023 10 O 16.7
Oggi h: 05:55 sereno Sereno 3 2 93 1023 10 O 11.1
Oggi h: 04:55 sereno Sereno 3 2 93 1023 10 O 11.1
Oggi h: 03:55 sereno Sereno 3 2 93 1023 10 O 9.3
Oggi h: 02:55 sereno Sereno 4 2 86 1023 10 O 9.3
Oggi h: 01:55 sereno Sereno 4 2 86 1023 10 O/SO 11.1
Oggi h: 00:55 sereno Sereno 5 2 80 1022 10 O 9.3
Ieri h: 22:55 sereno Sereno 7 2 70 1022 10 O 9.3
Ieri h: 21:55 sereno Sereno 8 1 61 1021 10 S/SO 7.4
Ieri h: 20:55 sereno Sereno 10 1 53 1021 10 N 1.8
Ieri h: 17:55 sereno Sereno 14 0 38 1021 10 N 3.7
Ieri h: 16:55 sereno Sereno 15 2 41 1021 10 N 5.5